Istanbul Airport

Airport
ICAO code: 
LTFM
IATA Code: 
IST
Summary
ICAO Region: 
EUR
Territory: 
Location: 
Arnavutkoy, Istanbul
Serving: 
Istanbul
Elevation: 
325 ft
Coordinates: 
Aerial View: 
41° 15' 41.472" N, 28° 44' 33.792" E
Metar
Observation
LTFM 191750Z 09008KT CAVOK 13/07 Q1027 NOSIG
Station
Istanbul New Airport
Date/Time
2022-05-19 17:50:00
Wind direction
90°
Wind speed
08 kts
Lowest cloud amount
clouds and visibility OK
Temperature
13°C
Dew point
7°C
Humidity
66%
QNH
1027 hPa
Weather condition
n/a

Istanbul Airport is the main international airport serving Istanbul, Turkey. It is located in the Arnavutköy district on the European side of the city.

Climatology

Dry-summer subtropical ”Mediterranean" climate (Köppen climate classification Csa)

Airport map: 
Aerial View: 

SKYbrary Partners:

Safety knowledge contributed by: